Time;durP1;ratioP1;P1;durP2;ratioP2;P2;SDS_P1;SDS_P2;PMS_P1;PMS_P2;Temp;Humidity;BMP_temperature;BMP_pressure;BME280_temperature;BME280_humidity;BME280_pressure;Samples;Min_cycle;Max_cycle;Signal;HPM_P1;HPM_P2
2023/05/30 00:01:23;;;;;;;9.93;3.05;;;;;;;16.00;45.30;98151.63;10611178;27;20111;-70
2023/05/30 00:06:44;;;;;;;14.50;3.17;;;;;;;15.95;45.72;98161.25;10581853;27;20141;-70
2023/05/30 00:12:05;;;;;;;13.18;3.15;;;;;;;15.97;45.62;98162.06;10610836;27;20488;-70
2023/05/30 00:17:26;;;;;;;10.32;2.70;;;;;;;15.97;45.74;98155.72;10610452;27;20194;-70
2023/05/30 00:22:47;;;;;;;5.63;2.40;;;;;;;15.97;45.77;98162.06;10610477;27;20039;-70
2023/05/30 00:28:07;;;;;;;8.45;2.83;;;;;;;16.03;45.77;98161.66;10595608;27;20066;-70
2023/05/30 00:33:28;;;;;;;6.90;2.33;;;;;;;16.05;45.84;98149.78;10581497;27;20203;-70
2023/05/30 00:38:49;;;;;;;6.88;2.60;;;;;;;16.01;46.02;98141.84;10581629;27;20071;-70
2023/05/30 00:44:09;;;;;;;4.57;2.33;;;;;;;15.91;46.06;98135.66;10624721;27;20176;-70
2023/05/30 00:49:30;;;;;;;6.15;2.53;;;;;;;15.87;45.97;98143.91;10608935;27;20167;-70
2023/05/30 00:54:50;;;;;;;6.18;2.42;;;;;;;15.85;45.94;98144.53;10580841;27;20073;-70
2023/05/30 01:00:12;;;;;;;5.90;2.15;;;;;;;15.90;46.16;98151.09;10580808;27;20112;-70
2023/05/30 01:05:33;;;;;;;7.35;2.38;;;;;;;15.89;46.10;98158.09;10608829;28;20059;-70
2023/05/30 01:10:57;;;;;;;9.50;2.58;;;;;;;15.81;46.21;98152.03;10594863;28;20130;-70
2023/05/30 01:16:20;;;;;;;4.30;2.58;;;;;;;15.70;46.26;98151.47;10580838;28;20074;-70
2023/05/30 01:21:40;;;;;;;6.70;2.33;;;;;;;15.60;46.45;98153.75;10594936;28;20465;-70
2023/05/30 01:27:24;;;;;;;4.43;2.10;;;;;;;15.48;46.51;98155.16;10580351;28;20505;-70
2023/05/30 01:32:45;;;;;;;3.75;2.13;;;;;;;15.38;46.71;98150.44;10594400;28;20081;-70
2023/05/30 01:38:05;;;;;;;5.80;2.28;;;;;;;15.23;46.67;98145.34;10594503;28;20168;-70
2023/05/30 01:43:42;;;;;;;6.63;3.05;;;;;;;15.12;46.97;98160.94;10608528;28;20121;-70
2023/05/30 01:49:15;;;;;;;4.53;2.42;;;;;;;15.04;46.98;98163.28;10580062;28;20118;-70
2023/05/30 01:54:37;;;;;;;4.40;2.55;;;;;;;14.90;46.84;98159.69;10608851;28;20445;-70
2023/05/30 01:59:58;;;;;;;6.70;2.45;;;;;;;14.86;47.35;98163.00;10602831;27;20122;-70
2023/05/30 02:05:19;;;;;;;7.68;2.50;;;;;;;14.87;47.65;98161.66;10603030;27;20131;-70
2023/05/30 02:10:40;;;;;;;5.10;2.17;;;;;;;14.84;47.28;98162.84;10602727;27;20055;-70
2023/05/30 02:16:01;;;;;;;4.72;2.28;;;;;;;14.70;47.77;98164.13;10632239;27;20077;-70
2023/05/30 02:21:22;;;;;;;4.03;1.90;;;;;;;14.58;47.74;98158.53;10587198;27;20043;-70
2023/05/30 02:26:42;;;;;;;10.07;2.28;;;;;;;14.47;48.46;98165.63;10600865;27;20137;-70
2023/05/30 02:32:04;;;;;;;4.22;2.53;;;;;;;14.41;48.11;98170.13;10600160;27;20059;-70
2023/05/30 02:37:27;;;;;;;7.72;2.17;;;;;;;14.37;48.11;98167.06;10614829;27;20067;-70
2023/05/30 02:42:49;;;;;;;5.22;2.22;;;;;;;14.42;48.58;98183.56;10586607;27;20540;-70
2023/05/30 02:48:10;;;;;;;4.32;2.42;;;;;;;14.48;48.30;98178.34;10599963;27;20475;-70
2023/05/30 02:53:31;;;;;;;4.70;2.22;;;;;;;14.51;48.58;98182.72;10599583;27;20187;-70
2023/05/30 02:58:54;;;;;;;7.00;2.50;;;;;;;14.59;48.54;98183.22;10613571;27;20119;-70
2023/05/30 03:04:45;;;;;;;4.18;2.40;;;;;;;14.64;48.65;98183.44;10581634;27;20504;-70
2023/05/30 03:10:13;;;;;;;7.40;2.97;;;;;;;14.69;48.70;98196.38;10581338;27;20195;-69
2023/05/30 03:15:46;;;;;;;3.78;2.42;;;;;;;14.69;48.74;98199.94;10570895;28;20111;-71
2023/05/30 03:21:08;;;;;;;4.15;2.53;;;;;;;14.72;48.69;98197.97;10555841;28;20063;-70
2023/05/30 03:26:29;;;;;;;6.15;2.83;;;;;;;14.70;48.93;98198.56;10570500;27;20122;-70
2023/05/30 03:31:50;;;;;;;5.70;2.90;;;;;;;14.73;48.75;98191.72;10565309;27;20472;-71
2023/05/30 03:37:11;;;;;;;8.35;2.60;;;;;;;14.77;48.72;98191.25;10598302;27;20391;-75
2023/05/30 03:42:32;;;;;;;5.75;2.67;;;;;;;14.79;48.89;98189.28;10620290;27;20122;-70
2023/05/30 03:47:53;;;;;;;4.50;2.72;;;;;;;14.84;48.81;98198.66;10569158;28;20449;-70
2023/05/30 03:53:13;;;;;;;5.20;2.58;;;;;;;14.88;48.52;98198.91;10569063;28;20556;-70
2023/05/30 03:58:34;;;;;;;5.90;2.80;;;;;;;14.94;48.49;98201.31;10568668;28;20126;-70
2023/05/30 04:03:55;;;;;;;5.47;2.58;;;;;;;15.08;48.56;98204.97;10554011;28;20397;-70
2023/05/30 04:09:16;;;;;;;4.32;2.38;;;;;;;15.07;48.55;98212.66;10568470;28;20123;-70
2023/05/30 04:14:36;;;;;;;4.53;2.15;;;;;;;15.18;48.73;98209.09;10553638;28;20478;-70
2023/05/30 04:19:57;;;;;;;6.65;2.22;;;;;;;15.37;48.54;98210.13;10583094;27;20131;-70
2023/05/30 04:25:18;;;;;;;6.32;2.28;;;;;;;15.54;48.41;98201.25;10595625;27;20099;-70
2023/05/30 04:30:40;;;;;;;5.55;2.60;;;;;;;15.79;48.09;98208.94;10581566;27;20114;-70
2023/05/30 04:36:04;;;;;;;5.87;2.17;;;;;;;16.08;47.80;98208.38;10595320;27;20047;-70
2023/05/30 04:41:26;;;;;;;4.35;2.40;;;;;;;16.20;47.50;98219.56;10595050;27;20141;-70
2023/05/30 04:46:49;;;;;;;10.35;2.60;;;;;;;16.29;47.35;98218.63;10595641;27;20145;-70
2023/05/30 04:52:10;;;;;;;10.52;2.53;;;;;;;16.47;47.34;98224.50;10608789;27;20118;-70
2023/05/30 04:57:31;;;;;;;6.70;2.10;;;;;;;16.51;46.92;98228.28;10595094;27;20070;-70
2023/05/30 05:02:52;;;;;;;4.00;2.17;;;;;;;16.62;46.81;98240.78;10594324;27;20062;-70
2023/05/30 05:08:12;;;;;;;7.78;2.20;;;;;;;16.70;46.54;98241.25;10594659;28;20067;-70
2023/05/30 05:13:33;;;;;;;6.40;2.15;;;;;;;17.28;46.06;98244.84;10594238;28;20119;-70
2023/05/30 05:18:53;;;;;;;4.43;2.00;;;;;;;18.15;45.37;98253.91;10588008;28;20074;-70
2023/05/30 05:24:14;;;;;;;8.98;2.22;;;;;;;18.97;44.06;98249.75;10581449;28;20127;-71
2023/05/30 05:29:35;;;;;;;4.85;2.30;;;;;;;19.91;42.56;98251.50;10565884;28;20055;-71
2023/05/30 05:34:55;;;;;;;7.53;2.42;;;;;;;20.97;41.16;98261.06;10544454;28;20063;-71
2023/05/30 05:40:16;;;;;;;5.18;2.10;;;;;;;21.25;39.51;98269.84;10589109;28;20097;-71
2023/05/30 05:45:37;;;;;;;10.15;2.45;;;;;;;20.92;37.65;98277.22;10559700;28;20067;-70
2023/05/30 05:50:58;;;;;;;5.65;2.22;;;;;;;20.98;37.67;98271.03;10544746;28;20093;-71
2023/05/30 05:56:21;;;;;;;7.40;2.55;;;;;;;20.88;36.87;98279.19;10559681;28;20446;-70
2023/05/30 06:01:45;;;;;;;5.68;2.42;;;;;;;20.67;37.52;98281.31;10559698;28;20370;-71
2023/05/30 06:07:06;;;;;;;6.53;2.40;;;;;;;21.27;36.38;98287.69;10573065;28;20486;-71
2023/05/30 06:12:26;;;;;;;7.43;2.28;;;;;;;21.48;36.27;98279.84;10544653;28;20410;-76
2023/05/30 06:17:48;;;;;;;4.68;1.90;;;;;;;22.05;35.85;98287.34;10587565;28;20130;-70
2023/05/30 06:23:09;;;;;;;7.80;2.13;;;;;;;22.25;34.75;98288.00;10572618;28;20063;-70
2023/05/30 06:28:30;;;;;;;6.35;2.42;;;;;;;22.60;34.30;98303.25;10572276;28;20063;-86
2023/05/30 06:33:51;;;;;;;7.18;2.45;;;;;;;22.85;33.12;98299.69;10543598;28;20080;-70
2023/05/30 06:39:15;;;;;;;8.20;2.28;;;;;;;23.24;32.77;98301.47;10571988;28;20047;-70
2023/05/30 06:44:36;;;;;;;7.43;2.30;;;;;;;23.84;31.74;98304.44;10583519;28;20036;-71
2023/05/30 06:49:58;;;;;;;5.47;1.88;;;;;;;24.35;31.01;98299.19;10556900;28;20097;-71
2023/05/30 06:55:19;;;;;;;8.23;2.40;;;;;;;24.58;30.01;98315.38;10557406;28;20064;-71
2023/05/30 07:00:40;;;;;;;4.88;2.05;;;;;;;23.92;30.46;98318.16;10570671;28;20047;-71
2023/05/30 07:06:02;;;;;;;7.00;2.15;;;;;;;24.70;30.46;98315.63;10570665;28;20079;-71
2023/05/30 07:11:23;;;;;;;6.27;2.03;;;;;;;26.55;28.51;98326.03;10542798;28;20397;-71
2023/05/30 07:16:44;;;;;;;6.18;2.40;;;;;;;27.51;27.39;98319.97;10570371;28;20063;-71
2023/05/30 07:22:05;;;;;;;4.65;1.95;;;;;;;27.61;26.10;98327.94;10556029;28;20039;-71
2023/05/30 07:27:26;;;;;;;7.25;2.08;;;;;;;27.97;26.10;98318.22;10570336;28;20574;-71
2023/05/30 07:32:47;;;;;;;3.73;1.47;;;;;;;27.50;24.91;98323.53;10569694;28;20118;-72
2023/05/30 07:38:08;;;;;;;6.17;1.90;;;;;;;26.76;25.15;98325.56;10541773;28;20054;-71
2023/05/30 07:43:30;;;;;;;5.13;1.60;;;;;;;26.88;25.68;98325.00;10569187;28;20071;-71
2023/05/30 07:48:50;;;;;;;5.45;1.73;;;;;;;26.72;25.79;98341.97;10569133;28;20047;-71
2023/05/30 07:54:11;;;;;;;4.97;1.70;;;;;;;26.74;25.99;98330.56;10568926;28;20047;-71
2023/05/30 07:59:32;;;;;;;10.40;1.90;;;;;;;27.01;25.33;98340.19;10526574;28;20044;-71
2023/05/30 08:04:53;;;;;;;7.67;1.70;;;;;;;27.03;25.22;98332.38;10553937;28;20066;-71
2023/05/30 08:10:15;;;;;;;5.35;1.67;;;;;;;27.44;25.09;98329.22;10583429;28;20043;-71
2023/05/30 08:15:36;;;;;;;6.63;1.85;;;;;;;27.66;24.59;98341.63;10554291;28;20401;-71
2023/05/30 08:20:56;;;;;;;7.00;1.70;;;;;;;27.31;24.27;98334.84;10553827;28;20519;-71
2023/05/30 08:26:18;;;;;;;4.38;1.60;;;;;;;27.29;24.85;98331.22;10581861;28;20043;-71
2023/05/30 08:31:39;;;;;;;10.23;2.43;;;;;;;27.31;25.33;98343.44;10567548;28;20043;-71
2023/05/30 08:37:01;;;;;;;8.20;2.00;;;;;;;25.92;25.61;98340.81;10581483;28;20082;-71
2023/05/30 08:42:21;;;;;;;7.35;1.73;;;;;;;26.91;25.42;98337.91;10552958;28;20497;-71
2023/05/30 08:47:43;;;;;;;6.33;1.60;;;;;;;27.66;24.17;98341.63;10566847;28;20043;-71
2023/05/30 08:53:07;;;;;;;10.32;1.80;;;;;;;28.31;23.39;98332.84;10552977;28;20469;-71
2023/05/30 08:58:33;;;;;;;3.83;1.38;;;;;;;28.01;23.37;98341.94;10553163;28;20051;-71
2023/05/30 09:03:56;;;;;;;5.35;1.40;;;;;;;28.74;22.66;98353.91;10539386;28;20055;-71
2023/05/30 09:09:18;;;;;;;;;;;;;;;28.48;21.85;98342.28;10580606;28;20040;-74
2023/05/30 09:14:39;;;;;;;5.57;1.37;;;;;;;27.42;22.89;98341.38;10552380;28;19964;-74
2023/05/30 09:20:00;;;;;;;7.25;1.15;;;;;;;27.58;22.86;98350.13;10552401;28;20097;-71
2023/05/30 09:25:21;;;;;;;4.63;1.20;;;;;;;28.27;22.76;98341.38;10551982;28;20042;-71
2023/05/30 09:30:58;;;;;;;6.97;1.50;;;;;;;28.30;21.88;98354.38;10551924;28;20039;-72
2023/05/30 09:36:23;;;;;;;4.78;1.30;;;;;;;27.00;22.65;98350.91;10553680;28;20044;-77
2023/05/30 09:41:45;;;;;;;4.57;1.52;;;;;;;27.18;22.95;98350.44;10565432;28;20131;-73
2023/05/30 09:47:06;;;;;;;5.45;1.30;;;;;;;26.87;22.86;98355.06;10551922;28;20039;-74
2023/05/30 09:52:29;;;;;;;6.03;1.60;;;;;;;27.00;23.19;98353.06;10551852;28;20393;-89
2023/05/30 09:57:51;;;;;;;7.65;1.15;;;;;;;27.50;23.10;98364.38;10566120;28;20131;-81
2023/05/30 10:03:12;;;;;;;4.63;1.58;;;;;;;28.71;21.63;98355.31;10565118;28;20052;-77
2023/05/30 10:08:34;;;;;;;7.17;1.60;;;;;;;28.95;20.67;98345.38;10565410;28;20474;-82
2023/05/30 10:13:54;;;;;;;4.25;1.30;;;;;;;28.22;21.32;98346.41;10565322;28;20283;-83
2023/05/30 10:19:24;;;;;;;5.60;1.33;;;;;;;28.03;21.62;98344.81;10554269;28;20054;-83
2023/05/30 10:24:48;;;;;;;4.22;1.40;;;;;;;27.95;21.63;98354.06;10558807;28;20105;-82
2023/05/30 10:30:11;;;;;;;5.63;1.35;;;;;;;28.41;20.74;98335.06;10558924;28;20089;-81
2023/05/30 10:35:32;;;;;;;;;;;;;;;27.72;20.57;98346.00;10558690;28;20478;-76
2023/05/30 10:41:03;;;;;;;3.25;1.20;;;;;;;27.40;20.58;98338.47;10572109;28;19972;-77
2023/05/30 10:46:39;;;;;;;6.28;1.65;;;;;;;27.98;20.50;98325.41;10586061;28;20090;-77
2023/05/30 10:52:00;;;;;;;4.78;1.40;;;;;;;27.37;20.33;98325.56;10571506;28;20043;-77
2023/05/30 10:57:31;;;;;;;6.30;1.25;;;;;;;27.06;20.19;98328.09;10586086;28;20122;-77
2023/05/30 11:02:55;;;;;;;6.53;1.50;;;;;;;27.41;20.15;98324.88;10586123;28;20044;-78
2023/05/30 11:08:16;;;;;;;7.07;1.33;;;;;;;26.70;20.12;98321.91;10570714;28;20051;-83
2023/05/30 11:13:37;;;;;;;5.32;1.05;;;;;;;26.09;20.78;98315.31;10556366;28;20043;-79
2023/05/30 11:19:11;;;;;;;4.15;1.58;;;;;;;25.98;20.82;98319.44;10570233;28;20110;-79
2023/05/30 11:24:32;;;;;;;5.10;1.35;;;;;;;25.96;20.49;98320.84;10542197;28;20046;-79
2023/05/30 11:29:55;;;;;;;4.53;1.23;;;;;;;26.55;20.12;98317.44;10541457;28;20039;-78
2023/05/30 11:35:17;;;;;;;4.25;0.90;;;;;;;26.45;19.88;98327.31;10556408;28;20066;-78
2023/05/30 11:40:42;;;;;;;4.28;1.17;;;;;;;26.05;18.95;98320.97;10584651;28;20044;-72
2023/05/30 11:46:03;;;;;;;4.88;0.98;;;;;;;25.54;19.21;98322.97;10569487;28;20406;-71
2023/05/30 11:51:26;;;;;;;7.50;1.45;;;;;;;25.62;19.54;98315.25;10554741;28;20389;-71
2023/05/30 11:56:47;;;;;;;3.30;1.10;;;;;;;26.35;18.64;98324.28;10554935;28;20475;-71
2023/05/30 12:02:10;;;;;;;4.22;1.48;;;;;;;25.87;18.34;98327.13;10555430;28;20427;-72
2023/05/30 12:07:32;;;;;;;3.72;1.00;;;;;;;25.52;18.38;98328.66;10610131;27;20069;-71
2023/05/30 12:12:53;;;;;;;2.38;0.93;;;;;;;25.00;18.11;98318.41;10582268;27;20130;-71
2023/05/30 12:18:15;;;;;;;3.88;0.80;;;;;;;24.95;18.35;98328.28;10610390;27;20047;-71
2023/05/30 12:23:39;;;;;;;5.20;0.80;;;;;;;25.58;18.26;98303.78;10596073;27;20465;-69
2023/05/30 12:29:06;;;;;;;4.03;1.00;;;;;;;25.42;17.27;98309.19;10595976;27;20042;-71
2023/05/30 12:34:46;;;;;;;5.68;0.90;;;;;;;24.84;17.41;98310.22;10581587;27;20065;-71
2023/05/30 12:40:08;;;;;;;6.32;0.90;;;;;;;24.70;17.38;98317.75;10595523;27;20506;-70
2023/05/30 12:45:32;;;;;;;4.28;0.80;;;;;;;24.88;17.10;98306.72;10594844;27;20039;-71
2023/05/30 12:50:54;;;;;;;3.17;1.02;;;;;;;24.79;16.14;98320.09;10578870;27;20085;-70
2023/05/30 12:56:15;;;;;;;3.00;1.00;;;;;;;24.72;16.26;98307.13;10595113;27;20142;-70
2023/05/30 13:01:36;;;;;;;2.20;0.70;;;;;;;24.69;15.43;98307.75;10566566;28;20039;-70
2023/05/30 13:06:57;;;;;;;2.22;0.95;;;;;;;24.68;15.08;98309.88;10564842;28;20493;-70
2023/05/30 13:12:18;;;;;;;4.20;1.10;;;;;;;24.40;14.67;98306.44;10510020;28;20064;-70
2023/05/30 13:17:40;;;;;;;5.00;1.13;;;;;;;24.25;15.34;98308.97;10539263;28;20109;-70
2023/05/30 13:23:01;;;;;;;2.95;0.95;;;;;;;24.17;15.49;98311.63;10523690;28;20096;-70
2023/05/30 13:28:22;;;;;;;1.88;0.73;;;;;;;24.33;16.50;98314.16;10523925;28;20043;-69
2023/05/30 13:33:43;;;;;;;2.10;0.68;;;;;;;23.96;17.25;98313.28;10524162;28;20044;-70
2023/05/30 13:39:04;;;;;;;3.88;0.80;;;;;;;23.61;17.60;98305.28;10495445;28;20427;-71
2023/05/30 13:44:27;;;;;;;4.47;0.57;;;;;;;23.67;18.08;98303.31;10519843;28;20221;-70
2023/05/30 13:49:48;;;;;;;3.05;1.00;;;;;;;23.58;17.94;98306.63;10550846;28;20200;-70
2023/05/30 13:55:10;;;;;;;3.20;0.68;;;;;;;23.34;18.32;98298.16;10556371;28;20092;-70
2023/05/30 14:00:31;;;;;;;3.38;1.05;;;;;;;23.19;18.08;98293.50;10559027;28;20039;-71
2023/05/30 14:05:51;;;;;;;1.38;0.60;;;;;;;23.35;18.59;98306.03;10558693;28;20054;-70
2023/05/30 14:11:13;;;;;;;5.50;1.00;;;;;;;23.21;18.16;98297.13;10544937;28;20097;-70
2023/05/30 14:16:34;;;;;;;6.22;1.10;;;;;;;23.07;18.85;98305.31;10558508;28;20093;-70
2023/05/30 14:21:55;;;;;;;1.63;0.75;;;;;;;22.70;19.31;98303.53;10587407;28;20058;-69
2023/05/30 14:27:16;;;;;;;5.20;0.70;;;;;;;22.50;19.21;98298.69;10557723;28;20039;-76
2023/05/30 14:32:37;;;;;;;2.65;0.80;;;;;;;22.28;19.59;98300.88;10558089;28;20035;-71
2023/05/30 14:37:58;;;;;;;4.65;0.90;;;;;;;22.41;20.03;98313.34;10557577;28;20043;-78
2023/05/30 14:43:19;;;;;;;5.78;1.10;;;;;;;22.46;19.67;98303.53;10543198;28;20119;-74
2023/05/30 14:48:42;;;;;;;3.92;0.90;;;;;;;22.42;19.55;98309.84;10558337;27;20488;-75
2023/05/30 14:54:03;;;;;;;4.05;0.77;;;;;;;22.56;19.71;98306.69;10613868;27;20069;-75
2023/05/30 14:59:26;;;;;;;2.53;0.80;;;;;;;22.43;20.23;98299.91;10613382;27;20404;-78
2023/05/30 15:04:47;;;;;;;3.40;0.85;;;;;;;22.27;20.84;98296.56;10611917;27;20048;-71
2023/05/30 15:10:09;;;;;;;2.13;0.70;;;;;;;22.31;21.28;98291.03;10598690;27;20491;-71
2023/05/30 15:15:30;;;;;;;4.47;0.70;;;;;;;22.22;21.39;98295.00;10598416;27;20042;-70
2023/05/30 15:20:50;;;;;;;3.67;0.98;;;;;;;22.09;21.50;98293.16;10628009;27;20047;-70
2023/05/30 15:26:13;;;;;;;3.05;0.75;;;;;;;21.95;21.36;98285.63;10598399;27;20050;-70
2023/05/30 15:31:34;;;;;;;3.03;0.80;;;;;;;21.87;22.10;98291.06;10598102;27;20047;-70
2023/05/30 15:36:57;;;;;;;4.45;0.82;;;;;;;21.71;22.31;98288.44;10597622;27;20393;-70
2023/05/30 15:42:20;;;;;;;5.07;1.05;;;;;;;21.81;22.60;98278.78;10583425;27;20055;-70
2023/05/30 15:47:41;;;;;;;2.90;0.90;;;;;;;21.84;22.83;98272.50;10598012;27;20035;-70
2023/05/30 15:53:03;;;;;;;3.05;0.90;;;;;;;21.57;22.83;98267.38;10626385;27;20039;-70
2023/05/30 15:58:23;;;;;;;3.88;0.85;;;;;;;21.67;22.87;98264.84;10608740;27;20047;-73
2023/05/30 16:03:44;;;;;;;4.78;0.85;;;;;;;21.80;23.13;98266.69;10596427;27;20055;-75
2023/05/30 16:09:06;;;;;;;5.15;0.93;;;;;;;21.63;23.41;98264.72;10596949;27;20452;-76
2023/05/30 16:14:27;;;;;;;4.18;0.82;;;;;;;21.59;23.64;98270.25;10597038;27;20055;-87
2023/05/30 16:19:48;;;;;;;4.72;0.93;;;;;;;21.50;24.00;98277.06;10595924;27;20075;-76
2023/05/30 16:25:09;;;;;;;6.00;1.33;;;;;;;21.42;24.13;98269.75;10596123;27;20039;-75
2023/05/30 16:30:30;;;;;;;3.53;0.95;;;;;;;21.33;24.21;98278.66;10607731;27;20035;-74
2023/05/30 16:36:20;;;;;;;7.10;1.65;;;;;;;21.09;24.68;98279.25;10609875;27;20047;-74
2023/05/30 16:41:41;;;;;;;4.97;1.25;;;;;;;21.10;24.54;98288.47;10609983;27;20051;-72
2023/05/30 16:47:03;;;;;;;4.35;1.00;;;;;;;21.08;24.34;98285.56;10581472;27;20406;-71
2023/05/30 16:52:24;;;;;;;4.50;1.15;;;;;;;20.96;24.73;98277.38;10595330;27;20472;-71
2023/05/30 16:57:45;;;;;;;3.03;1.30;;;;;;;20.92;24.71;98287.84;10595383;27;20043;-71
2023/05/30 17:03:06;;;;;;;7.95;1.00;;;;;;;20.73;24.91;98287.19;10577407;27;20055;-71
2023/05/30 17:08:27;;;;;;;4.22;1.25;;;;;;;20.63;25.46;98292.50;10576681;27;20438;-70
2023/05/30 17:13:49;;;;;;;1.70;0.90;;;;;;;20.49;25.54;98295.53;10576227;28;20047;-70
2023/05/30 17:19:09;;;;;;;3.70;1.00;;;;;;;20.38;25.30;98295.78;10590771;28;20400;-70
2023/05/30 17:24:48;;;;;;;3.85;1.02;;;;;;;20.26;25.63;98296.75;10595535;28;20046;-71
2023/05/30 17:30:10;;;;;;;3.90;1.10;;;;;;;20.21;25.95;98300.09;10599182;27;20396;-71
2023/05/30 17:35:34;;;;;;;4.20;1.27;;;;;;;20.20;25.78;98312.81;10602618;27;20064;-71
2023/05/30 17:40:55;;;;;;;5.50;1.33;;;;;;;20.11;26.19;98320.28;10602859;27;20043;-71
2023/05/30 17:46:16;;;;;;;6.03;1.50;;;;;;;20.00;26.21;98315.59;10602211;27;20092;-71
2023/05/30 17:51:37;;;;;;;6.18;1.27;;;;;;;19.84;26.78;98315.66;10588190;27;20447;-71
2023/05/30 17:56:58;;;;;;;2.17;0.95;;;;;;;19.72;26.72;98315.91;10602217;27;20043;-71
2023/05/30 18:02:19;;;;;;;3.30;1.65;;;;;;;19.60;26.99;98329.56;10601833;27;20400;-71
2023/05/30 18:07:40;;;;;;;2.83;1.10;;;;;;;19.45;27.05;98321.84;10615770;27;20050;-71
2023/05/30 18:13:01;;;;;;;4.05;1.13;;;;;;;19.27;27.04;98330.28;10601700;27;20173;-70
2023/05/30 18:18:21;;;;;;;3.05;1.27;;;;;;;19.11;27.32;98332.44;10615287;27;20039;-71
2023/05/30 18:23:42;;;;;;;3.45;1.25;;;;;;;18.94;27.59;98344.41;10601314;27;20075;-70
2023/05/30 18:29:03;;;;;;;4.35;1.10;;;;;;;18.80;27.63;98333.91;10600818;27;20039;-70
2023/05/30 18:34:28;;;;;;;3.45;1.20;;;;;;;18.60;28.27;98336.50;10600915;27;20417;-70
2023/05/30 18:39:50;;;;;;;7.03;1.23;;;;;;;18.42;28.35;98344.16;10600865;27;20070;-70
2023/05/30 18:45:11;;;;;;;2.67;1.20;;;;;;;18.24;28.79;98341.25;10600312;27;20043;-70
2023/05/30 18:50:32;;;;;;;3.83;1.35;;;;;;;18.08;29.31;98356.69;10599894;27;20040;-70
2023/05/30 18:55:54;;;;;;;7.03;1.55;;;;;;;17.95;29.40;98361.00;10585598;27;20039;-70
2023/05/30 19:01:14;;;;;;;4.95;1.20;;;;;;;17.82;29.31;98370.97;10585136;27;20050;-69
2023/05/30 19:06:37;;;;;;;3.90;1.27;;;;;;;17.70;29.75;98376.78;10584780;27;20047;-70
2023/05/30 19:11:58;;;;;;;4.90;1.65;;;;;;;17.50;30.10;98372.91;10585156;27;20069;-71
2023/05/30 19:17:19;;;;;;;3.25;1.52;;;;;;;17.36;30.47;98384.19;10613229;27;20039;-71
2023/05/30 19:22:40;;;;;;;4.60;1.45;;;;;;;17.19;30.58;98387.56;10628469;27;20054;-70
2023/05/30 19:28:05;;;;;;;6.28;1.42;;;;;;;17.09;31.00;98395.50;10598682;27;20039;-70
2023/05/30 19:33:25;;;;;;;5.90;1.98;;;;;;;16.91;31.48;98388.91;10570089;27;20446;-70
2023/05/30 19:38:46;;;;;;;6.35;1.45;;;;;;;16.84;31.79;98397.03;10598011;27;20043;-72
2023/05/30 19:44:07;;;;;;;6.45;1.48;;;;;;;16.73;32.06;98406.28;10583739;27;20122;-72
2023/05/30 19:49:29;;;;;;;6.05;1.40;;;;;;;16.62;32.06;98415.53;10583496;27;20078;-71
2023/05/30 19:54:50;;;;;;;4.93;1.70;;;;;;;16.52;32.49;98421.34;10611732;27;20065;-71
2023/05/30 20:00:12;;;;;;;2.95;1.42;;;;;;;16.44;32.85;98420.91;10597067;27;20069;-71
2023/05/30 20:06:36;;;;;;;4.40;1.52;;;;;;;16.39;33.25;98429.72;10611147;27;20071;-70
2023/05/30 20:11:57;;;;;;;4.90;1.38;;;;;;;16.35;33.05;98435.88;10596452;27;20074;-70
2023/05/30 20:17:18;;;;;;;4.53;1.42;;;;;;;16.27;33.12;98441.78;10596704;27;20044;-77
2023/05/30 20:23:18;;;;;;;3.45;1.38;;;;;;;16.22;33.63;98440.13;10604191;27;20043;-69
2023/05/30 20:28:44;;;;;;;5.55;1.42;;;;;;;16.16;33.55;98448.22;10598448;27;20088;-75
2023/05/30 20:34:05;;;;;;;4.00;1.17;;;;;;;16.09;33.87;98454.09;10596995;27;20115;-71
2023/05/30 20:39:26;;;;;;;3.83;1.23;;;;;;;15.99;33.82;98457.06;10610171;27;20043;-71
2023/05/30 20:44:47;;;;;;;5.32;2.08;;;;;;;15.89;34.08;98448.03;10595530;27;20035;-70
2023/05/30 20:50:08;;;;;;;3.75;1.63;;;;;;;15.84;34.47;98463.25;10595624;27;20118;-71
2023/05/30 20:55:28;;;;;;;4.72;1.50;;;;;;;15.80;34.57;98463.72;10581539;27;20069;-71
2023/05/30 21:00:49;;;;;;;4.63;1.52;;;;;;;15.69;34.80;98465.22;10609446;27;20075;-71
2023/05/30 21:06:10;;;;;;;6.15;1.48;;;;;;;15.50;34.98;98465.47;10593800;27;20118;-71
2023/05/30 21:11:31;;;;;;;5.82;1.55;;;;;;;15.36;35.61;98470.25;10594704;28;20157;-71
2023/05/30 21:16:51;;;;;;;5.90;1.60;;;;;;;15.29;35.47;98468.41;10595118;28;20043;-71
2023/05/30 21:22:12;;;;;;;6.10;1.50;;;;;;;15.23;35.57;98468.75;10580518;28;20498;-72
2023/05/30 21:27:33;;;;;;;3.53;1.38;;;;;;;15.24;35.84;98469.50;10609081;28;20473;-71
2023/05/30 21:32:54;;;;;;;5.00;1.60;;;;;;;15.17;35.96;98466.31;10624277;28;20122;-71
2023/05/30 21:38:16;;;;;;;4.10;1.38;;;;;;;15.22;36.74;98480.63;10594738;28;20123;-71
2023/05/30 21:43:36;;;;;;;7.65;1.67;;;;;;;15.16;36.33;98473.28;10594628;28;20050;-71
2023/05/30 21:48:57;;;;;;;4.78;1.70;;;;;;;15.15;36.65;98471.06;10594142;28;20118;-71
2023/05/30 21:54:35;;;;;;;3.47;1.52;;;;;;;15.14;37.08;98475.97;10594507;28;20123;-71
2023/05/30 21:59:55;;;;;;;8.68;1.30;;;;;;;15.10;36.91;98464.47;10594191;28;20067;-71
2023/05/30 22:05:16;;;;;;;7.30;1.30;;;;;;;15.03;37.14;98471.06;10578903;28;20051;-71
2023/05/30 22:10:37;;;;;;;5.90;1.60;;;;;;;14.97;37.11;98476.31;10608152;28;20118;-71
2023/05/30 22:15:57;;;;;;;6.28;1.45;;;;;;;14.93;37.28;98480.94;10627808;27;20519;-71
2023/05/30 22:21:18;;;;;;;5.13;1.50;;;;;;;14.86;37.56;98469.34;10631121;27;20118;-71
2023/05/30 22:26:38;;;;;;;4.32;1.55;;;;;;;14.74;37.61;98468.56;10615247;27;20122;-71
2023/05/30 22:31:59;;;;;;;3.78;1.33;;;;;;;14.58;37.97;98467.56;10614836;27;20114;-71
2023/05/30 22:37:20;;;;;;;6.07;1.50;;;;;;;14.54;38.33;98468.03;10600266;27;20110;-71
2023/05/30 22:42:40;;;;;;;4.35;1.00;;;;;;;14.51;38.07;98472.06;10600216;27;20453;-71
2023/05/30 22:48:01;;;;;;;5.78;1.02;;;;;;;14.44;38.58;98466.63;10629579;27;20138;-71
2023/05/30 22:53:22;;;;;;;3.83;1.20;;;;;;;14.41;38.81;98470.66;10614535;27;20457;-71
2023/05/30 22:58:44;;;;;;;3.78;1.05;;;;;;;14.33;38.96;98468.78;10613970;27;20518;-71
2023/05/30 23:04:04;;;;;;;2.78;1.13;;;;;;;14.29;39.21;98460.09;10628888;27;20377;-71
2023/05/30 23:09:25;;;;;;;4.75;1.20;;;;;;;14.18;39.33;98460.03;10584753;27;20115;-71
2023/05/30 23:14:46;;;;;;;3.25;1.17;;;;;;;14.09;39.71;98464.41;10613058;27;20039;-71
2023/05/30 23:20:07;;;;;;;4.63;0.98;;;;;;;14.04;39.87;98463.41;10628201;27;20472;-71
2023/05/30 23:25:28;;;;;;;4.88;1.20;;;;;;;13.89;40.13;98463.06;10612005;27;20063;-71
2023/05/30 23:30:49;;;;;;;4.35;1.33;;;;;;;13.75;40.26;98458.00;10612409;27;20116;-71
2023/05/30 23:36:09;;;;;;;4.60;1.15;;;;;;;13.54;40.62;98457.25;10627663;27;20114;-71
2023/05/30 23:41:30;;;;;;;2.72;1.30;;;;;;;13.37;40.94;98464.56;10597703;27;20520;-71
2023/05/30 23:46:51;;;;;;;2.90;1.05;;;;;;;13.27;41.40;98458.25;10611913;27;20134;-71
2023/05/30 23:52:11;;;;;;;3.67;1.10;;;;;;;13.26;41.58;98465.22;10611305;27;20085;-71
2023/05/30 23:57:32;;;;;;;3.50;1.17;;;;;;;13.21;41.96;98463.44;10611365;27;20119;-71
